createdAt,value
2018-08-19T00:01:12.405Z,19.10
2018-08-19T00:03:43.161Z,19.20
2018-08-19T00:06:14.009Z,19.10
2018-08-19T00:08:44.747Z,19.00
2018-08-19T00:11:15.607Z,19.20
2018-08-19T00:13:46.386Z,19.20
2018-08-19T00:16:17.342Z,19.10
2018-08-19T00:18:48.100Z,18.90
2018-08-19T00:21:18.898Z,18.80
2018-08-19T00:23:49.826Z,18.70
2018-08-19T00:26:20.626Z,18.70
2018-08-19T00:28:51.330Z,18.70
2018-08-19T00:31:22.106Z,18.80
2018-08-19T00:33:52.887Z,18.90
2018-08-19T00:36:35.326Z,18.70
2018-08-19T00:39:09.266Z,18.60
2018-08-19T00:41:40.047Z,18.60
2018-08-19T00:44:10.788Z,18.50
2018-08-19T00:46:41.549Z,18.40
2018-08-19T00:49:12.327Z,18.20
2018-08-19T00:52:01.826Z,18.30
2018-08-19T00:54:33.238Z,18.70
2018-08-19T00:57:04.169Z,19.10
2018-08-19T00:59:34.967Z,18.70
2018-08-19T01:02:05.898Z,18.50
2018-08-19T01:04:36.666Z,18.60
2018-08-19T01:07:07.478Z,18.80
2018-08-19T01:09:38.298Z,18.60
2018-08-19T01:12:09.099Z,18.50
2018-08-19T01:14:40.177Z,18.20
2018-08-19T01:17:11.365Z,18.20
2018-08-19T01:19:42.078Z,18.20
2018-08-19T01:22:12.911Z,18.10
2018-08-19T01:24:43.658Z,18.40
2018-08-19T01:27:14.712Z,18.20
2018-08-19T01:29:45.479Z,18.10
2018-08-19T01:32:16.237Z,18.00
2018-08-19T01:34:47.273Z,17.80
2018-08-19T01:37:18.148Z,17.90
2018-08-19T01:39:48.812Z,18.00
2018-08-19T01:42:19.599Z,18.10
2018-08-19T01:44:50.305Z,18.00
2018-08-19T01:47:21.251Z,17.90
2018-08-19T01:49:51.966Z,17.80
2018-08-19T01:52:22.759Z,17.90
2018-08-19T01:54:53.507Z,17.90
2018-08-19T01:57:31.558Z,18.10
2018-08-19T02:00:02.526Z,18.20
2018-08-19T02:02:39.202Z,18.00
2018-08-19T02:05:10.015Z,17.70
2018-08-19T02:07:40.867Z,17.70
2018-08-19T02:10:11.646Z,17.90
2018-08-19T02:12:42.444Z,18.20
2018-08-19T02:15:13.222Z,18.20
2018-08-19T02:17:48.877Z,18.40
2018-08-19T02:20:19.862Z,18.50
2018-08-19T02:22:54.619Z,18.50
2018-08-19T02:25:25.386Z,18.20
2018-08-19T02:27:56.238Z,18.00
2018-08-19T02:30:27.106Z,18.00
2018-08-19T02:32:57.879Z,18.20
2018-08-19T02:35:28.666Z,18.00
2018-08-19T02:37:59.379Z,17.90
2018-08-19T02:40:32.332Z,17.90
2018-08-19T02:43:03.249Z,18.00
2018-08-19T02:45:33.978Z,17.90
2018-08-19T02:48:04.906Z,18.00
2018-08-19T02:50:35.629Z,17.50
2018-08-19T02:53:07.107Z,17.40
2018-08-19T02:55:37.858Z,17.50
2018-08-19T02:58:13.998Z,17.50
2018-08-19T03:00:44.768Z,17.70
2018-08-19T03:03:15.539Z,17.90
2018-08-19T03:05:50.366Z,17.70
2018-08-19T03:08:21.197Z,17.90
2018-08-19T03:10:51.927Z,17.80
2018-08-19T03:13:22.906Z,17.70
2018-08-19T03:15:56.309Z,17.90
2018-08-19T03:18:27.119Z,17.90
2018-08-19T03:20:57.846Z,17.70
2018-08-19T03:23:28.667Z,17.90
2018-08-19T03:26:00.246Z,17.60
2018-08-19T03:28:31.010Z,17.50
2018-08-19T03:31:02.680Z,17.50
2018-08-19T03:33:33.484Z,17.50
2018-08-19T03:36:04.235Z,17.60
2018-08-19T03:38:34.939Z,17.70
2018-08-19T03:41:05.710Z,17.60
2018-08-19T03:43:37.039Z,17.90
2018-08-19T03:46:12.578Z,17.90
2018-08-19T03:48:43.315Z,17.90
2018-08-19T03:51:14.918Z,18.00
2018-08-19T03:53:45.710Z,17.60
2018-08-19T03:56:21.678Z,17.70
2018-08-19T03:58:56.587Z,17.80
2018-08-19T04:01:39.639Z,17.80
2018-08-19T04:04:10.819Z,17.60
2018-08-19T04:06:41.687Z,17.70
2018-08-19T04:09:12.467Z,17.70
2018-08-19T04:11:43.248Z,17.70
2018-08-19T04:14:27.614Z,17.70
2018-08-19T04:17:01.341Z,17.60
2018-08-19T04:19:32.155Z,17.50
2018-08-19T04:22:05.786Z,17.50
2018-08-19T04:24:36.834Z,17.20
2018-08-19T04:27:09.899Z,16.90
2018-08-19T04:29:41.203Z,17.10
2018-08-19T04:32:24.679Z,17.10
2018-08-19T04:34:55.527Z,17.30
2018-08-19T04:37:26.324Z,17.00
2018-08-19T04:39:56.998Z,16.90
2018-08-19T04:42:27.748Z,16.90
2018-08-19T04:44:58.506Z,17.30
2018-08-19T04:47:32.886Z,17.70
2018-08-19T04:50:03.626Z,17.80
2018-08-19T04:52:34.438Z,17.40
2018-08-19T04:55:05.526Z,17.10
2018-08-19T04:57:36.346Z,16.80
2018-08-19T05:00:07.258Z,16.90
2018-08-19T05:02:38.049Z,17.20
2018-08-19T05:05:08.863Z,17.20
2018-08-19T05:07:39.567Z,17.10
2018-08-19T05:10:10.386Z,16.90
2018-08-19T05:12:41.130Z,17.00
2018-08-19T05:15:11.880Z,17.00
2018-08-19T05:17:42.641Z,17.00
2018-08-19T05:20:16.404Z,17.00
2018-08-19T05:22:47.168Z,17.10
2018-08-19T05:25:17.951Z,17.50
2018-08-19T05:27:52.946Z,17.60
2018-08-19T05:30:23.818Z,17.50
2018-08-19T05:32:59.842Z,17.20
2018-08-19T05:35:32.006Z,17.10
2018-08-19T05:38:03.871Z,17.30
2018-08-19T05:40:34.661Z,17.40
2018-08-19T05:43:05.407Z,17.40
2018-08-19T05:45:41.257Z,17.60
2018-08-19T05:48:13.340Z,17.70
2018-08-19T05:50:44.187Z,17.50
2018-08-19T05:53:14.886Z,17.60
2018-08-19T05:55:46.087Z,17.70
2018-08-19T05:58:16.966Z,17.70
2018-08-19T06:00:51.919Z,17.70
2018-08-19T06:03:22.842Z,18.10
2018-08-19T06:05:53.713Z,18.10
2018-08-19T06:08:24.439Z,18.10
2018-08-19T06:10:55.268Z,18.30
2018-08-19T06:13:28.705Z,18.30
2018-08-19T06:15:59.533Z,18.10
2018-08-19T06:18:30.779Z,18.30
2018-08-19T06:21:03.641Z,18.60
2018-08-19T06:23:34.370Z,18.40
2018-08-19T06:26:05.240Z,18.50
2018-08-19T06:28:36.022Z,18.70
2018-08-19T06:31:06.832Z,18.70
2018-08-19T06:33:37.545Z,18.60
2018-08-19T06:36:08.738Z,18.60
2018-08-19T06:38:39.431Z,18.70
2018-08-19T06:41:10.298Z,18.60
2018-08-19T06:43:41.059Z,18.90
2018-08-19T06:46:11.846Z,18.90
2018-08-19T06:48:42.600Z,18.90
2018-08-19T06:51:13.450Z,19.00
2018-08-19T06:53:44.239Z,19.10
2018-08-19T06:56:15.066Z,19.20
2018-08-19T06:58:45.806Z,19.10
2018-08-19T07:01:16.648Z,19.00
2018-08-19T07:03:51.735Z,19.10
2018-08-19T07:06:22.567Z,19.00
2018-08-19T07:08:53.379Z,19.20
2018-08-19T07:11:24.220Z,19.40
2018-08-19T07:13:55.027Z,19.50
2018-08-19T07:16:25.858Z,19.60
2018-08-19T07:18:56.587Z,19.60
2018-08-19T07:21:27.427Z,19.70
2018-08-19T07:23:58.128Z,19.80
2018-08-19T07:26:28.887Z,19.90
2018-08-19T07:28:59.683Z,19.90
2018-08-19T07:31:30.446Z,20.10
2018-08-19T07:34:01.184Z,20.20
2018-08-19T07:36:32.300Z,20.20
2018-08-19T07:39:03.139Z,20.20
2018-08-19T07:41:34.078Z,20.40
2018-08-19T07:44:04.975Z,20.40
2018-08-19T07:46:35.906Z,20.60
2018-08-19T07:49:08.087Z,20.70
2018-08-19T07:51:39.410Z,20.80
2018-08-19T07:54:10.318Z,20.80
2018-08-19T07:56:41.161Z,20.70
2018-08-19T07:59:13.560Z,20.70
2018-08-19T08:01:44.429Z,20.80
2018-08-19T08:04:15.473Z,21.10
2018-08-19T08:06:46.367Z,21.20
2018-08-19T08:09:17.348Z,21.30
2018-08-19T08:11:48.123Z,21.50
2018-08-19T08:14:18.899Z,21.70
2018-08-19T08:16:54.659Z,21.50
2018-08-19T08:19:26.198Z,21.50
2018-08-19T08:22:07.427Z,21.50
2018-08-19T08:24:39.859Z,21.60
2018-08-19T08:27:10.799Z,21.70
2018-08-19T08:29:42.481Z,21.90
2018-08-19T08:32:13.417Z,22.20
2018-08-19T08:34:44.221Z,22.40
2018-08-19T08:37:15.179Z,22.60
2018-08-19T08:39:46.000Z,22.80
2018-08-19T08:42:16.799Z,22.80
2018-08-19T08:44:47.661Z,22.90
2018-08-19T08:47:18.575Z,23.10
2018-08-19T08:49:49.410Z,23.20
2018-08-19T08:52:24.927Z,23.30
2018-08-19T08:54:58.399Z,23.30
2018-08-19T08:57:29.330Z,23.40
2018-08-19T09:00:00.179Z,23.50
2018-08-19T09:02:31.042Z,23.40
2018-08-19T09:05:01.847Z,23.40
2018-08-19T09:07:32.664Z,23.50
2018-08-19T09:10:03.558Z,23.60
2018-08-19T09:12:43.654Z,23.80
2018-08-19T09:15:15.606Z,23.80
2018-08-19T09:17:46.551Z,24.10
2018-08-19T09:20:17.367Z,24.10
2018-08-19T09:22:48.924Z,24.20
2018-08-19T09:25:19.619Z,24.30
2018-08-19T09:27:50.771Z,24.50
2018-08-19T09:30:39.588Z,24.50
2018-08-19T09:33:11.046Z,24.70
2018-08-19T09:35:43.137Z,24.80
2018-08-19T09:38:20.835Z,24.80
2018-08-19T09:40:51.987Z,24.90
2018-08-19T09:43:22.946Z,25.10
2018-08-19T09:45:53.702Z,25.30
2018-08-19T09:48:24.671Z,25.10
2018-08-19T09:51:01.659Z,25.00
2018-08-19T09:53:32.819Z,25.00
2018-08-19T09:56:09.458Z,24.80
2018-08-19T09:58:41.637Z,24.80
2018-08-19T10:01:16.719Z,25.10
2018-08-19T10:03:47.621Z,25.00
2018-08-19T10:06:18.554Z,25.40
2018-08-19T10:08:49.389Z,25.40
2018-08-19T10:11:20.146Z,25.50
2018-08-19T10:13:55.225Z,25.60
2018-08-19T10:16:41.506Z,25.60
2018-08-19T10:19:13.841Z,25.50
2018-08-19T10:21:45.425Z,25.60
2018-08-19T10:24:29.639Z,25.80
2018-08-19T10:27:00.842Z,25.90
2018-08-19T10:29:31.650Z,25.90
2018-08-19T10:32:03.499Z,25.90
2018-08-19T10:34:38.111Z,25.80
2018-08-19T10:37:08.938Z,26.00
2018-08-19T10:39:39.868Z,25.90
2018-08-19T10:42:23.265Z,26.00
2018-08-19T10:44:54.267Z,26.10
2018-08-19T10:47:25.166Z,26.20
2018-08-19T10:50:05.058Z,26.40
2018-08-19T10:52:41.735Z,26.60
2018-08-19T10:55:13.995Z,26.70
2018-08-19T10:57:44.842Z,26.80
2018-08-19T11:00:20.009Z,26.90
2018-08-19T11:02:50.847Z,26.90
2018-08-19T11:05:21.679Z,26.90
2018-08-19T11:07:52.446Z,27.10
2018-08-19T11:10:25.970Z,27.20
2018-08-19T11:12:58.387Z,27.20
2018-08-19T11:15:44.615Z,27.20
2018-08-19T11:18:32.198Z,27.50
2018-08-19T11:21:08.785Z,27.50
2018-08-19T11:23:42.574Z,27.30
2018-08-19T11:26:13.966Z,27.40
2018-08-19T11:29:01.834Z,27.60
2018-08-19T11:31:35.057Z,27.80
2018-08-19T11:34:09.170Z,27.70
2018-08-19T11:36:44.746Z,27.90
2018-08-19T11:39:16.967Z,27.70
2018-08-19T11:41:47.789Z,27.90
2018-08-19T11:44:18.789Z,27.90
2018-08-19T11:46:49.539Z,27.90
2018-08-19T11:49:21.222Z,28.10
2018-08-19T11:51:55.746Z,28.20
2018-08-19T11:54:27.719Z,28.00
2018-08-19T11:57:05.961Z,28.00
2018-08-19T11:59:43.158Z,27.90
2018-08-19T12:02:23.015Z,28.00
2018-08-19T12:04:53.836Z,28.10
2018-08-19T12:07:24.640Z,28.30
2018-08-19T12:09:59.642Z,28.40
2018-08-19T12:12:47.623Z,28.40
2018-08-19T12:15:18.378Z,28.60
2018-08-19T12:17:49.477Z,28.90
2018-08-19T12:20:27.959Z,28.80
2018-08-19T12:22:58.852Z,29.00
2018-08-19T12:25:29.942Z,29.00
2018-08-19T12:28:00.755Z,28.90
2018-08-19T12:30:33.621Z,28.80
2018-08-19T12:33:21.087Z,29.00
2018-08-19T12:35:55.041Z,28.90
2018-08-19T12:38:26.084Z,29.10
2018-08-19T12:40:56.849Z,29.10
2018-08-19T12:43:27.866Z,29.30
2018-08-19T12:46:00.232Z,29.40
2018-08-19T12:48:31.299Z,29.60
2018-08-19T12:51:06.012Z,29.80
2018-08-19T12:53:36.935Z,30.00
2018-08-19T12:56:07.668Z,29.90
2018-08-19T12:58:38.486Z,29.80
2018-08-19T13:01:09.189Z,29.80
2018-08-19T13:03:39.972Z,30.00
2018-08-19T13:06:10.749Z,30.10
2018-08-19T13:08:41.564Z,29.50
2018-08-19T13:11:12.326Z,29.40
2018-08-19T13:13:43.146Z,29.80
2018-08-19T13:16:14.062Z,30.10
2018-08-19T13:18:44.945Z,30.50
2018-08-19T13:21:16.841Z,30.60
2018-08-19T13:23:47.646Z,30.40
2018-08-19T13:26:18.427Z,30.80
2018-08-19T13:28:54.628Z,30.30
2018-08-19T13:31:31.356Z,30.60
2018-08-19T13:34:02.887Z,30.60
2018-08-19T13:36:33.719Z,30.50
2018-08-19T13:39:05.859Z,30.40
2018-08-19T13:41:36.644Z,30.60
2018-08-19T13:44:07.520Z,30.80
2018-08-19T13:46:38.341Z,30.60
2018-08-19T13:49:09.158Z,30.90
2018-08-19T13:51:39.918Z,31.00
2018-08-19T13:54:10.897Z,31.30
2018-08-19T13:56:42.247Z,31.10
2018-08-19T13:59:13.191Z,31.30
2018-08-19T14:01:44.383Z,31.30
2018-08-19T14:04:15.239Z,31.30
2018-08-19T14:06:46.607Z,31.40
2018-08-19T14:09:17.387Z,31.30
2018-08-19T14:11:48.236Z,31.40
2018-08-19T14:14:19.027Z,31.10
2018-08-19T14:16:49.893Z,31.20
2018-08-19T14:19:20.587Z,31.50
2018-08-19T14:21:51.387Z,31.70
2018-08-19T14:24:22.287Z,31.70
2018-08-19T14:26:53.284Z,31.50
2018-08-19T14:29:24.016Z,31.50
2018-08-19T14:31:54.793Z,31.60
2018-08-19T14:34:25.602Z,31.40
2018-08-19T14:36:56.525Z,31.30
2018-08-19T14:39:27.371Z,31.40
2018-08-19T14:41:58.210Z,31.80
2018-08-19T14:44:29.046Z,31.90
2018-08-19T14:46:59.827Z,32.10
2018-08-19T14:49:30.720Z,31.70
2018-08-19T14:52:03.186Z,31.40
2018-08-19T14:54:34.470Z,31.40
2018-08-19T14:57:06.494Z,31.50
2018-08-19T14:59:37.306Z,31.40
2018-08-19T15:02:08.391Z,31.60
2018-08-19T15:04:42.387Z,32.10
2018-08-19T15:07:13.122Z,31.80
2018-08-19T15:09:50.335Z,31.60
2018-08-19T15:12:22.619Z,31.50
2018-08-19T15:14:53.979Z,31.10
2018-08-19T15:17:24.800Z,31.30
2018-08-19T15:19:56.071Z,31.90
2018-08-19T15:22:26.831Z,31.50
2018-08-19T15:24:57.619Z,31.60
2018-08-19T15:27:28.507Z,31.90
2018-08-19T15:29:59.347Z,31.90
2018-08-19T15:32:30.326Z,31.60
2018-08-19T15:35:00.967Z,32.20
2018-08-19T15:37:31.931Z,32.10
2018-08-19T15:40:02.592Z,32.10
2018-08-19T15:42:33.374Z,31.90
2018-08-19T15:45:04.178Z,31.80
2018-08-19T15:47:34.879Z,31.90
2018-08-19T15:50:19.070Z,31.10
2018-08-19T15:52:50.932Z,31.40
2018-08-19T15:55:22.174Z,31.50
2018-08-19T15:57:52.928Z,31.60
2018-08-19T16:00:23.768Z,31.80
2018-08-19T16:02:55.386Z,31.50
2018-08-19T16:05:26.209Z,30.80
2018-08-19T16:07:57.062Z,29.50
2018-08-19T16:10:27.890Z,29.20
2018-08-19T16:12:58.744Z,29.30
2018-08-19T16:15:30.535Z,28.60
2018-08-19T16:18:01.343Z,28.70
2018-08-19T16:20:32.186Z,28.80
2018-08-19T16:23:03.421Z,28.80
2018-08-19T16:25:34.298Z,28.60
2018-08-19T16:28:05.476Z,28.50
2018-08-19T16:30:36.311Z,27.80
2018-08-19T16:33:07.149Z,27.60
2018-08-19T16:35:37.948Z,28.20
2018-08-19T16:38:09.044Z,29.00
2018-08-19T16:40:39.995Z,28.90
2018-08-19T16:43:10.785Z,28.10
2018-08-19T16:45:42.516Z,28.10
2018-08-19T16:48:13.345Z,27.20
2018-08-19T16:50:44.292Z,27.40
2018-08-19T16:53:15.879Z,27.10
2018-08-19T16:55:46.767Z,26.70
2018-08-19T16:58:17.522Z,26.20
2018-08-19T17:00:48.401Z,26.40
2018-08-19T17:03:32.918Z,26.60
2018-08-19T17:06:04.345Z,26.40
2018-08-19T17:08:35.161Z,26.10
2018-08-19T17:11:06.121Z,26.00
2018-08-19T17:13:36.900Z,26.20
2018-08-19T17:16:07.946Z,26.10
2018-08-19T17:18:38.758Z,25.60
2018-08-19T17:21:09.723Z,25.80
2018-08-19T17:23:40.488Z,25.80
2018-08-19T17:26:16.300Z,25.70
2018-08-19T17:28:47.202Z,25.70
2018-08-19T17:31:18.141Z,25.40
2018-08-19T17:33:49.089Z,25.50
2018-08-19T17:36:37.718Z,25.20
2018-08-19T17:39:13.393Z,25.40
2018-08-19T17:41:44.168Z,25.60
2018-08-19T17:44:15.048Z,25.20
2018-08-19T17:46:45.826Z,24.90
2018-08-19T17:49:21.738Z,24.80
2018-08-19T17:51:53.451Z,24.70
2018-08-19T17:54:28.412Z,24.80
2018-08-19T17:57:00.603Z,24.90
2018-08-19T17:59:31.611Z,24.90
2018-08-19T18:02:02.425Z,24.80
2018-08-19T18:04:38.207Z,24.70
2018-08-19T18:07:15.063Z,24.70
2018-08-19T18:09:52.737Z,24.40
2018-08-19T18:12:23.565Z,24.30
2018-08-19T18:14:54.650Z,24.20
2018-08-19T18:17:25.482Z,24.30
2018-08-19T18:19:56.430Z,24.30
2018-08-19T18:22:28.046Z,24.20
2018-08-19T18:25:02.920Z,24.20
2018-08-19T18:27:34.162Z,24.30
2018-08-19T18:30:06.701Z,24.00
2018-08-19T18:32:39.405Z,24.00
2018-08-19T18:35:11.213Z,24.00
2018-08-19T18:37:41.999Z,24.00
2018-08-19T18:40:20.579Z,23.80
2018-08-19T18:42:52.407Z,23.90
2018-08-19T18:45:23.313Z,23.80
2018-08-19T18:48:03.777Z,23.70
2018-08-19T18:50:34.683Z,23.80
2018-08-19T18:53:05.613Z,23.80
2018-08-19T18:55:36.829Z,23.80
2018-08-19T18:58:09.989Z,23.80
2018-08-19T19:00:49.302Z,23.70
2018-08-19T19:03:20.923Z,23.70
2018-08-19T19:05:51.699Z,23.70
2018-08-19T19:08:22.414Z,23.70
2018-08-19T19:10:59.243Z,23.70
2018-08-19T19:13:30.188Z,23.70
2018-08-19T19:16:01.769Z,23.50
2018-08-19T19:18:32.897Z,23.60
2018-08-19T19:21:05.705Z,23.80
2018-08-19T19:23:41.298Z,23.90
2018-08-19T19:26:12.178Z,23.70
2018-08-19T19:28:43.069Z,23.60
2018-08-19T19:31:15.416Z,23.60
2018-08-19T19:33:46.625Z,23.70
2018-08-19T19:36:22.718Z,23.50
2018-08-19T19:38:58.065Z,23.40
2018-08-19T19:41:31.879Z,23.40
2018-08-19T19:44:22.738Z,23.40
2018-08-19T19:46:54.307Z,23.40
2018-08-19T19:49:26.107Z,23.50
2018-08-19T19:51:59.016Z,23.50
2018-08-19T19:54:31.668Z,23.30
2018-08-19T19:57:02.870Z,23.30
2018-08-19T19:59:34.779Z,23.40
2018-08-19T20:02:06.529Z,23.30
2018-08-19T20:04:37.380Z,23.00
2018-08-19T20:07:09.277Z,23.10
2018-08-19T20:09:43.544Z,23.10
2018-08-19T20:12:32.421Z,23.10
2018-08-19T20:15:03.146Z,23.00
2018-08-19T20:17:35.158Z,23.00
2018-08-19T20:20:06.038Z,23.10
2018-08-19T20:22:36.907Z,23.30
2018-08-19T20:25:08.670Z,23.20
2018-08-19T20:27:39.519Z,23.30
2018-08-19T20:30:10.519Z,23.30
2018-08-19T20:32:42.794Z,23.40
2018-08-19T20:35:13.498Z,23.10
2018-08-19T20:37:44.374Z,22.90
2018-08-19T20:40:15.505Z,23.00
2018-08-19T20:42:46.577Z,23.00
2018-08-19T20:45:17.695Z,22.90
2018-08-19T20:47:48.555Z,22.90
2018-08-19T20:50:19.425Z,23.00
2018-08-19T20:52:50.266Z,23.10
2018-08-19T20:55:21.059Z,22.90
2018-08-19T20:57:52.467Z,22.70
2018-08-19T21:00:23.287Z,22.80
2018-08-19T21:02:54.129Z,22.70
2018-08-19T21:05:24.946Z,22.50
2018-08-19T21:08:12.131Z,22.50
2018-08-19T21:10:44.051Z,22.50
2018-08-19T21:13:16.909Z,22.30
2018-08-19T21:15:48.999Z,22.20
2018-08-19T21:18:19.786Z,22.10
2018-08-19T21:20:50.506Z,22.40
2018-08-19T21:23:21.511Z,22.40
2018-08-19T21:25:57.378Z,22.50
2018-08-19T21:28:28.747Z,22.20
2018-08-19T21:30:59.506Z,22.10
2018-08-19T21:33:30.299Z,22.00
2018-08-19T21:36:01.028Z,21.80
2018-08-19T21:38:31.826Z,21.80
2018-08-19T21:41:02.577Z,22.10
2018-08-19T21:43:33.339Z,21.90
2018-08-19T21:46:04.021Z,21.70
2018-08-19T21:48:34.817Z,21.50
2018-08-19T21:51:05.589Z,21.40
2018-08-19T21:53:37.239Z,21.30
2018-08-19T21:56:08.031Z,21.10
2018-08-19T21:58:38.949Z,21.20
2018-08-19T22:01:14.840Z,21.00
2018-08-19T22:03:49.122Z,20.80
2018-08-19T22:06:19.968Z,20.90
2018-08-19T22:08:50.767Z,21.20
2018-08-19T22:11:21.514Z,21.40
2018-08-19T22:13:52.307Z,21.10
2018-08-19T22:16:23.090Z,21.10
2018-08-19T22:18:54.367Z,21.00
2018-08-19T22:21:25.146Z,20.80
2018-08-19T22:23:57.239Z,20.70
2018-08-19T22:26:27.960Z,21.00
2018-08-19T22:29:14.233Z,21.30
2018-08-19T22:31:45.027Z,21.00
2018-08-19T22:34:15.782Z,21.00
2018-08-19T22:36:46.569Z,20.80
2018-08-19T22:39:19.906Z,20.90
2018-08-19T22:41:52.543Z,21.10
2018-08-19T22:44:23.309Z,20.80
2018-08-19T22:46:54.218Z,20.90
2018-08-19T22:49:28.147Z,20.80
2018-08-19T22:52:34.298Z,20.80
2018-08-19T22:55:05.180Z,20.80
2018-08-19T22:57:35.966Z,20.80
2018-08-19T23:00:08.778Z,20.80
2018-08-19T23:02:39.478Z,20.60
2018-08-19T23:05:10.677Z,20.60
2018-08-19T23:07:41.458Z,20.60
2018-08-19T23:10:12.332Z,20.50
2018-08-19T23:12:43.418Z,20.50
2018-08-19T23:15:30.549Z,20.80
2018-08-19T23:18:01.305Z,20.70
2018-08-19T23:20:32.058Z,20.80
2018-08-19T23:23:02.806Z,20.90
2018-08-19T23:25:33.586Z,20.90
2018-08-19T23:28:04.379Z,21.00
2018-08-19T23:30:35.146Z,21.00
2018-08-19T23:33:06.386Z,21.10
2018-08-19T23:35:37.199Z,21.20
2018-08-19T23:38:07.906Z,21.20
2018-08-19T23:40:38.692Z,21.20
2018-08-19T23:43:09.516Z,21.30
2018-08-19T23:45:40.246Z,21.20
2018-08-19T23:48:11.187Z,21.20
2018-08-19T23:50:42.075Z,21.20
2018-08-19T23:53:12.826Z,21.10
2018-08-19T23:55:43.568Z,21.00
2018-08-19T23:58:14.279Z,21.00
